This is the latest recevied weather packets stored in our database for station/object IU2PLZ-10. If no packets are shown the sender has not sent any weather packets the latest 10 day(s).
| Time | Temp. | Humidity | Pressure | Rain* | Wind** | Luminosity | Snow |
|---|---|---|---|---|---|---|---|
| 1777518075 | 20° C | 44% | 963.2 hPa | - | - | - | - |
| 1777517175 | 20° C | 45% | 963.4 hPa | - | - | - | - |
| 1777516275 | 19.44° C | 46% | 963.5 hPa | - | - | - | - |
| 1777515375 | 20° C | 46% | 964.2 hPa | - | - | - | - |
| 1777514474 | 19.44° C | 47% | 963.7 hPa | - | - | - | - |
| 1777513574 | 20° C | 49% | 964.4 hPa | - | - | - | - |
| 1777512674 | 18.89° C | 50% | 963.3 hPa | - | - | - | - |
| 1777511774 | 19.44° C | 51% | 964.3 hPa | - | - | - | - |
| 1777510874 | 18.89° C | 53% | 964.6 hPa | - | - | - | - |
| 1777509974 | 18.89° C | 53% | 964.5 hPa | - | - | - | - |
| 1777509073 | 18.89° C | 54% | 963.9 hPa | - | - | - | - |
| 1777508173 | 18.33° C | 54% | 964.2 hPa | - | - | - | - |
| 1777507273 | 18.33° C | 53% | 964.4 hPa | - | - | - | - |
| 1777506373 | 18.89° C | 55% | 965.1 hPa | - | - | - | - |
| 1777505473 | 18.89° C | 55% | 965.4 hPa | - | - | - | - |
| 1777504573 | 18.33° C | 54% | 965.4 hPa | - | - | - | - |
| 1777503672 | 18.33° C | 53% | 965.6 hPa | - | - | - | - |
| 1777502772 | 18.33° C | 49% | 965 hPa | - | - | - | - |
| 1777501872 | 19.44° C | 46% | 966.3 hPa | - | - | - | - |
| 1777500972 | 19.44° C | 45% | 965 hPa | - | - | - | - |
| 1777500072 | 19.44° C | 45% | 964.9 hPa | - | - | - | - |
| 1777499172 | 19.44° C | 46% | 964.6 hPa | - | - | - | - |
| 1777498272 | 20° C | 46% | 965.4 hPa | - | - | - | - |
| 1777497371 | 20° C | 47% | 965.5 hPa | - | - | - | - |
| 1777496471 | 20° C | 47% | 965.5 hPa | - | - | - | - |
* Rain since midnight (hover to see other rain measurements)
** Current wind speed in m/s (hover to see current wind gust speed)